createdAt,value
2023-05-22T00:01:37.713Z,14.40
2023-05-22T00:04:04.511Z,13.38
2023-05-22T00:06:31.284Z,13.63
2023-05-22T00:08:57.822Z,11.70
2023-05-22T00:11:24.486Z,13.00
2023-05-22T00:13:51.338Z,13.93
2023-05-22T00:16:17.967Z,13.13
2023-05-22T00:18:44.794Z,17.27
2023-05-22T00:21:11.699Z,15.18
2023-05-22T00:23:44.184Z,15.00
2023-05-22T00:26:14.777Z,15.80
2023-05-22T00:28:44.349Z,15.98
2023-05-22T00:31:11.378Z,14.23
2023-05-22T00:33:38.408Z,16.30
2023-05-22T00:36:05.267Z,14.32
2023-05-22T00:38:33.197Z,17.00
2023-05-22T00:41:00.289Z,20.00
2023-05-22T00:43:32.008Z,20.42
2023-05-22T00:46:01.461Z,20.17
2023-05-22T00:48:28.022Z,16.42
2023-05-22T00:50:55.998Z,18.08
2023-05-22T00:53:24.945Z,17.27
2023-05-22T00:55:53.285Z,21.05
2023-05-22T00:58:20.322Z,15.05
2023-05-22T01:00:47.463Z,15.02
2023-05-22T01:03:16.134Z,13.63
2023-05-22T01:05:43.537Z,17.98
2023-05-22T01:08:10.231Z,16.15
2023-05-22T01:10:43.006Z,13.80
2023-05-22T01:13:14.907Z,17.85
2023-05-22T01:15:52.036Z,16.20
2023-05-22T01:18:31.846Z,16.50
2023-05-22T01:21:22.144Z,13.35
2023-05-22T01:24:11.654Z,17.10
2023-05-22T01:26:38.248Z,16.63
2023-05-22T01:29:23.256Z,18.45
2023-05-22T01:31:50.917Z,15.07
2023-05-22T01:34:18.707Z,14.93
2023-05-22T01:36:47.255Z,16.88
2023-05-22T01:39:14.604Z,15.48
2023-05-22T01:41:41.435Z,16.60
2023-05-22T01:44:07.991Z,17.20
2023-05-22T01:46:34.724Z,14.43
2023-05-22T01:49:01.336Z,14.77
2023-05-22T01:51:36.862Z,14.38
2023-05-22T01:54:09.355Z,18.05
2023-05-22T01:56:41.599Z,17.75
2023-05-22T01:59:15.192Z,18.20
2023-05-22T02:01:45.346Z,18.55
2023-05-22T02:04:14.024Z,19.45
2023-05-22T02:06:43.101Z,21.92
2023-05-22T02:09:10.711Z,21.27
2023-05-22T02:11:41.709Z,18.58
2023-05-22T02:14:09.254Z,19.10
2023-05-22T02:16:36.348Z,22.25
2023-05-22T02:19:06.511Z,21.35
2023-05-22T02:21:35.477Z,21.45
2023-05-22T02:24:02.720Z,21.15
2023-05-22T02:26:29.556Z,24.70
2023-05-22T02:28:56.477Z,17.73
2023-05-22T02:31:25.189Z,22.30
2023-05-22T02:33:52.204Z,20.65
2023-05-22T02:36:19.656Z,21.33
2023-05-22T02:38:47.421Z,18.75
2023-05-22T02:41:14.193Z,19.65
2023-05-22T02:43:40.965Z,19.13
2023-05-22T02:46:07.745Z,20.50
2023-05-22T02:48:34.203Z,20.17
2023-05-22T02:51:01.215Z,18.00
2023-05-22T02:53:28.039Z,18.15
2023-05-22T02:55:58.918Z,20.27
2023-05-22T02:58:26.996Z,15.93
2023-05-22T03:00:53.747Z,22.20
2023-05-22T03:03:23.525Z,18.40
2023-05-22T03:05:53.757Z,17.75
2023-05-22T03:08:21.074Z,16.08
2023-05-22T03:10:47.702Z,16.70
2023-05-22T03:13:14.298Z,18.63
2023-05-22T03:15:42.723Z,18.17
2023-05-22T03:18:13.600Z,15.73
2023-05-22T03:20:41.906Z,15.13
2023-05-22T03:23:09.007Z,15.98
2023-05-22T03:25:35.608Z,15.15
2023-05-22T03:28:02.592Z,15.57
2023-05-22T03:30:33.632Z,20.73
2023-05-22T03:33:10.098Z,20.00
2023-05-22T03:35:36.907Z,16.20
2023-05-22T03:38:04.058Z,17.50
2023-05-22T03:40:30.758Z,15.77
2023-05-22T03:42:57.395Z,16.70
2023-05-22T03:45:24.354Z,15.98
2023-05-22T03:47:50.960Z,18.25
2023-05-22T03:50:17.712Z,15.35
2023-05-22T03:52:45.252Z,20.10
2023-05-22T03:55:12.092Z,14.35
2023-05-22T03:57:38.634Z,17.77
2023-05-22T04:00:09.817Z,15.70
2023-05-22T04:02:40.043Z,16.70
2023-05-22T04:05:08.189Z,15.82
2023-05-22T04:07:34.838Z,15.80
2023-05-22T04:10:01.368Z,13.38
2023-05-22T04:12:28.025Z,15.38
2023-05-22T04:14:54.641Z,17.95
2023-05-22T04:17:21.157Z,17.65
2023-05-22T04:19:55.214Z,18.85
2023-05-22T04:22:22.778Z,14.23
2023-05-22T04:24:49.462Z,20.42
2023-05-22T04:27:16.341Z,16.92
2023-05-22T04:29:44.866Z,21.33
2023-05-22T04:32:11.546Z,16.52
2023-05-22T04:34:38.168Z,15.93
2023-05-22T04:37:05.324Z,15.18
2023-05-22T04:39:32.109Z,19.17
2023-05-22T04:41:58.706Z,19.33
2023-05-22T04:44:25.297Z,19.73
2023-05-22T04:46:51.907Z,14.30
2023-05-22T04:49:18.541Z,20.30
2023-05-22T04:51:45.254Z,18.65
2023-05-22T04:54:11.941Z,14.65
2023-05-22T04:56:39.284Z,16.02
2023-05-22T04:59:08.856Z,18.63
2023-05-22T05:01:35.975Z,14.77
2023-05-22T05:04:05.252Z,13.93
2023-05-22T05:06:31.902Z,15.27
2023-05-22T05:08:58.812Z,13.90
2023-05-22T05:11:26.035Z,16.23
2023-05-22T05:17:46.837Z,13.98
2023-05-22T05:20:17.401Z,16.45
2023-05-22T05:22:46.158Z,12.20
2023-05-22T05:25:13.684Z,17.80
2023-05-22T05:27:40.409Z,15.20
2023-05-22T05:30:08.228Z,14.73
2023-05-22T05:32:55.046Z,12.05
2023-05-22T05:35:26.645Z,12.90
2023-05-22T05:38:07.063Z,18.42
2023-05-22T05:40:35.334Z,17.58
2023-05-22T05:43:04.068Z,15.02
2023-05-22T05:45:30.801Z,13.05
2023-05-22T05:47:58.111Z,11.15
2023-05-22T05:50:25.145Z,14.25
2023-05-22T05:52:54.808Z,11.57
2023-05-22T05:55:21.975Z,13.27
2023-05-22T05:57:48.946Z,17.15
2023-05-22T06:00:23.296Z,14.15
2023-05-22T06:02:51.923Z,11.77
2023-05-22T06:05:48.508Z,10.00
2023-05-22T06:08:42.769Z,11.48
2023-05-22T06:11:09.693Z,9.52
2023-05-22T06:13:38.857Z,12.90
2023-05-22T06:16:06.860Z,10.82
2023-05-22T06:18:34.474Z,12.23
2023-05-22T06:21:01.106Z,11.80
2023-05-22T06:23:27.847Z,12.35
2023-05-22T06:25:55.639Z,11.15
2023-05-22T06:28:23.789Z,15.38
2023-05-22T06:30:51.781Z,11.80
2023-05-22T06:33:22.705Z,13.63
2023-05-22T06:35:50.900Z,12.38
2023-05-22T06:38:18.116Z,13.52
2023-05-22T06:40:44.828Z,17.13
2023-05-22T06:43:26.987Z,9.88
2023-05-22T06:50:44.033Z,10.35
2023-05-22T06:56:52.067Z,13.32
2023-05-22T07:03:39.731Z,17.50
2023-05-22T07:20:42.050Z,14.75
2023-05-22T07:23:24.418Z,10.90
2023-05-22T07:26:20.070Z,10.93
2023-05-22T07:29:03.810Z,14.07
2023-05-22T07:31:34.456Z,11.65
2023-05-22T07:34:01.928Z,9.60
2023-05-22T07:36:30.019Z,7.05
2023-05-22T07:39:14.531Z,14.45
2023-05-22T07:42:06.668Z,12.30
2023-05-22T07:44:47.727Z,8.30
2023-05-22T07:47:42.662Z,8.85
2023-05-22T07:56:56.429Z,12.73
2023-05-22T07:59:26.415Z,8.93
2023-05-22T08:02:08.235Z,12.77
2023-05-22T08:04:35.671Z,9.57
2023-05-22T08:07:05.778Z,12.07
2023-05-22T08:09:32.395Z,12.57
2023-05-22T08:11:58.993Z,9.57
2023-05-22T08:14:25.642Z,12.43
2023-05-22T08:16:53.159Z,10.77
2023-05-22T08:19:21.257Z,9.18
2023-05-22T08:21:52.956Z,10.75
2023-05-22T08:24:19.772Z,6.15
2023-05-22T08:26:46.356Z,10.63
2023-05-22T08:29:43.564Z,10.93
2023-05-22T08:32:17.106Z,8.52
2023-05-22T08:34:47.957Z,10.07
2023-05-22T08:37:35.245Z,8.43
2023-05-22T08:40:47.611Z,8.20
2023-05-22T08:43:15.420Z,11.75
2023-05-22T08:45:43.722Z,8.25
2023-05-22T08:48:12.644Z,7.38
2023-05-22T08:50:46.298Z,6.78
2023-05-22T08:53:14.881Z,9.60
2023-05-22T08:55:42.535Z,7.72
2023-05-22T08:58:10.133Z,7.30
2023-05-22T09:00:37.161Z,7.47
2023-05-22T09:03:07.240Z,7.25
2023-05-22T09:05:34.427Z,13.00
2023-05-22T09:08:15.952Z,8.57
2023-05-22T09:10:46.835Z,12.25
2023-05-22T09:13:23.182Z,11.38
2023-05-22T09:15:49.686Z,10.73
2023-05-22T09:18:17.706Z,8.02
2023-05-22T09:21:21.498Z,7.47
2023-05-22T09:24:01.614Z,11.07
2023-05-22T09:26:33.034Z,8.55
2023-05-22T09:28:59.873Z,6.32
2023-05-22T09:31:32.474Z,8.95
2023-05-22T09:33:59.888Z,6.43
2023-05-22T09:36:35.521Z,11.57
2023-05-22T09:41:30.476Z,10.50
2023-05-22T09:43:58.346Z,7.63
2023-05-22T09:46:26.367Z,9.73
2023-05-22T09:48:53.322Z,6.10
2023-05-22T09:51:23.924Z,8.27
2023-05-22T09:53:51.288Z,7.80
2023-05-22T09:56:27.146Z,9.73
2023-05-22T09:59:04.377Z,7.60
2023-05-22T10:01:32.056Z,5.10
2023-05-22T10:03:58.725Z,7.72
2023-05-22T10:06:27.266Z,5.63
2023-05-22T10:08:59.680Z,9.15
2023-05-22T10:11:29.194Z,6.43
2023-05-22T10:13:58.474Z,11.80
2023-05-22T10:16:26.067Z,9.57
2023-05-22T10:18:53.670Z,9.52
2023-05-22T10:21:21.223Z,7.82
2023-05-22T10:23:48.665Z,5.95
2023-05-22T10:26:15.972Z,7.30
2023-05-22T10:28:45.213Z,8.35
2023-05-22T10:31:14.466Z,10.93
2023-05-22T10:33:43.211Z,7.90
2023-05-22T10:36:13.530Z,10.20
2023-05-22T10:38:58.822Z,10.77
2023-05-22T10:41:26.334Z,5.93
2023-05-22T10:43:56.041Z,9.77
2023-05-22T10:46:22.667Z,8.20
2023-05-22T10:48:51.717Z,8.40
2023-05-22T10:51:19.745Z,8.48
2023-05-22T10:53:53.134Z,8.25
2023-05-22T10:56:20.818Z,7.47
2023-05-22T10:58:59.139Z,12.23
2023-05-22T11:01:26.451Z,13.05
2023-05-22T11:03:58.816Z,7.00
2023-05-22T11:06:37.733Z,11.02
2023-05-22T11:09:16.352Z,8.45
2023-05-22T11:11:43.135Z,8.05
2023-05-22T11:14:10.991Z,6.90
2023-05-22T11:16:41.334Z,5.30
2023-05-22T11:19:21.930Z,11.65
2023-05-22T11:21:50.228Z,11.10
2023-05-22T11:24:18.235Z,8.65
2023-05-22T11:27:00.477Z,8.40
2023-05-22T11:29:28.083Z,7.72
2023-05-22T11:31:54.910Z,5.22
2023-05-22T11:34:21.622Z,6.75
2023-05-22T11:36:48.414Z,8.95
2023-05-22T11:39:15.138Z,10.48
2023-05-22T11:41:41.626Z,5.15
2023-05-22T11:44:08.281Z,7.10
2023-05-22T11:46:35.003Z,9.98
2023-05-22T11:49:02.276Z,5.25
2023-05-22T11:51:34.557Z,6.80
2023-05-22T11:54:01.520Z,9.52
2023-05-22T11:56:28.148Z,4.38
2023-05-22T11:58:54.822Z,8.93
2023-05-22T12:01:21.326Z,6.15
2023-05-22T12:03:47.936Z,4.95
2023-05-22T12:06:16.504Z,6.00
2023-05-22T12:08:43.996Z,4.53
2023-05-22T12:11:11.615Z,8.98
2023-05-22T12:13:39.109Z,8.93
2023-05-22T12:16:17.950Z,6.97
2023-05-22T12:18:44.517Z,5.60
2023-05-22T12:21:11.129Z,9.38
2023-05-22T12:23:51.808Z,5.28
2023-05-22T12:26:19.568Z,10.10
2023-05-22T12:28:46.356Z,7.50
2023-05-22T12:31:20.149Z,4.50
2023-05-22T12:33:46.754Z,6.75
2023-05-22T12:36:13.272Z,7.65
2023-05-22T12:38:40.654Z,6.32
2023-05-22T12:41:08.016Z,10.13
2023-05-22T12:43:35.676Z,5.53
2023-05-22T12:46:05.379Z,9.48
2023-05-22T12:48:34.457Z,7.47
2023-05-22T12:51:01.147Z,7.45
2023-05-22T12:53:28.441Z,9.82
2023-05-22T12:55:55.094Z,11.45
2023-05-22T12:58:21.683Z,8.13
2023-05-22T13:00:48.309Z,8.43
2023-05-22T13:03:14.846Z,9.80
2023-05-22T13:05:42.063Z,9.32
2023-05-22T13:08:08.850Z,5.45
2023-05-22T13:10:36.118Z,9.88
2023-05-22T13:13:02.647Z,9.68
2023-05-22T13:15:29.652Z,6.95
2023-05-22T13:17:57.049Z,6.28
2023-05-22T13:20:23.728Z,7.85
2023-05-22T13:22:50.290Z,7.63
2023-05-22T13:25:19.131Z,6.13
2023-05-22T13:27:46.394Z,5.18
2023-05-22T13:30:13.397Z,7.35
2023-05-22T13:32:40.011Z,7.32
2023-05-22T13:35:06.814Z,3.92
2023-05-22T13:37:33.466Z,4.70
2023-05-22T13:40:00.566Z,7.60
2023-05-22T13:42:27.180Z,9.70
2023-05-22T13:44:53.937Z,8.20
2023-05-22T13:47:20.884Z,8.70
2023-05-22T13:49:47.398Z,6.90
2023-05-22T13:52:14.050Z,8.13
2023-05-22T13:54:40.813Z,7.57
2023-05-22T13:57:07.274Z,9.52
2023-05-22T13:59:33.918Z,8.73
2023-05-22T14:02:00.526Z,5.38
2023-05-22T14:04:27.175Z,15.40
2023-05-22T14:06:56.653Z,7.05
2023-05-22T14:09:23.182Z,11.43
2023-05-22T14:11:49.791Z,9.13
2023-05-22T14:14:16.516Z,8.15
2023-05-22T14:16:43.213Z,7.60
2023-05-22T14:19:09.871Z,5.70
2023-05-22T14:21:36.410Z,4.60
2023-05-22T14:24:04.542Z,8.18
2023-05-22T14:26:31.199Z,7.88
2023-05-22T14:28:57.906Z,5.85
2023-05-22T14:31:26.828Z,7.82
2023-05-22T14:33:53.425Z,10.73
2023-05-22T14:36:19.963Z,14.82
2023-05-22T14:38:47.613Z,5.40
2023-05-22T14:41:14.039Z,6.13
2023-05-22T14:43:40.720Z,4.20
2023-05-22T14:46:07.562Z,4.50
2023-05-22T14:48:34.047Z,7.43
2023-05-22T14:51:01.048Z,8.57
2023-05-22T14:53:30.533Z,6.75
2023-05-22T14:55:57.148Z,5.80
2023-05-22T14:58:23.945Z,10.63
2023-05-22T15:00:50.626Z,9.43
2023-05-22T15:03:19.118Z,6.45
2023-05-22T15:05:45.929Z,6.20
2023-05-22T15:08:12.430Z,6.85
2023-05-22T15:10:38.910Z,9.07
2023-05-22T15:13:05.582Z,6.40
2023-05-22T15:15:32.131Z,9.27
2023-05-22T15:18:02.482Z,8.90
2023-05-22T15:20:29.105Z,10.27
2023-05-22T15:22:55.642Z,9.25
2023-05-22T15:25:22.310Z,5.22
2023-05-22T15:27:48.842Z,6.10
2023-05-22T15:30:16.955Z,13.18
2023-05-22T15:32:43.747Z,8.13
2023-05-22T15:35:10.949Z,6.35
2023-05-22T15:37:37.583Z,9.10
2023-05-22T15:40:05.805Z,9.13
2023-05-22T15:42:32.480Z,7.63
2023-05-22T15:44:59.737Z,9.27
2023-05-22T15:47:26.444Z,6.93
2023-05-22T15:49:54.478Z,6.03
2023-05-22T15:52:23.251Z,12.68
2023-05-22T15:54:54.980Z,19.80
2023-05-22T15:57:22.927Z,7.13
2023-05-22T15:59:50.913Z,12.35
2023-05-22T16:02:18.580Z,10.85
2023-05-22T16:04:45.524Z,5.47
2023-05-22T16:07:12.099Z,6.03
2023-05-22T16:09:38.802Z,6.55
2023-05-22T16:12:05.567Z,11.40
2023-05-22T16:14:32.225Z,5.20
2023-05-22T16:16:58.822Z,5.55
2023-05-22T16:19:25.414Z,7.05
2023-05-22T16:21:52.119Z,8.70
2023-05-22T16:24:18.657Z,8.25
2023-05-22T16:26:45.367Z,6.15
2023-05-22T16:29:12.059Z,6.18
2023-05-22T16:31:38.638Z,8.32
2023-05-22T16:34:05.503Z,7.72
2023-05-22T16:36:32.607Z,8.23
2023-05-22T16:38:59.250Z,6.80
2023-05-22T16:41:26.807Z,8.25
2023-05-22T16:43:53.624Z,11.80
2023-05-22T16:46:20.202Z,5.20
2023-05-22T16:48:46.699Z,5.30
2023-05-22T16:51:13.290Z,10.10
2023-05-22T16:53:40.623Z,9.40
2023-05-22T16:56:07.541Z,7.78
2023-05-22T16:58:34.150Z,11.48
2023-05-22T17:01:00.992Z,15.52
2023-05-22T17:03:27.928Z,10.60
2023-05-22T17:05:54.669Z,11.27
2023-05-22T17:08:21.285Z,12.45
2023-05-22T17:10:47.812Z,9.40
2023-05-22T17:13:20.741Z,10.05
2023-05-22T17:15:48.273Z,8.90
2023-05-22T17:18:20.009Z,7.80
2023-05-22T17:20:47.342Z,10.30
2023-05-22T17:23:14.210Z,8.77
2023-05-22T17:25:41.788Z,9.30
2023-05-22T17:28:08.707Z,9.38
2023-05-22T17:30:35.721Z,8.32
2023-05-22T17:33:03.690Z,11.98
2023-05-22T17:35:30.616Z,15.23
2023-05-22T17:37:57.371Z,14.88
2023-05-22T17:40:29.581Z,12.43
2023-05-22T17:43:07.176Z,5.80
2023-05-22T17:45:33.629Z,11.82
2023-05-22T17:48:00.316Z,8.80
2023-05-22T17:50:26.976Z,5.57
2023-05-22T17:52:53.409Z,7.53
2023-05-22T17:55:20.944Z,9.77
2023-05-22T17:57:48.074Z,4.60
2023-05-22T18:00:14.811Z,9.88
2023-05-22T18:02:41.634Z,10.93
2023-05-22T18:05:08.706Z,7.53
2023-05-22T18:07:35.316Z,4.80
2023-05-22T18:10:01.892Z,5.40
2023-05-22T18:12:32.008Z,8.50
2023-05-22T18:14:59.185Z,13.38
2023-05-22T18:17:25.731Z,9.65
2023-05-22T18:19:52.352Z,9.65
2023-05-22T18:22:18.953Z,8.95
2023-05-22T18:24:45.559Z,7.57
2023-05-22T18:27:12.257Z,6.40
2023-05-22T18:29:39.610Z,8.05
2023-05-22T18:32:09.326Z,7.80
2023-05-22T18:34:37.587Z,6.72
2023-05-22T18:37:04.706Z,11.50
2023-05-22T18:39:31.416Z,7.60
2023-05-22T18:41:58.657Z,7.20
2023-05-22T18:44:25.319Z,8.73
2023-05-22T18:46:52.050Z,5.68
2023-05-22T18:49:18.500Z,8.90
2023-05-22T18:51:45.028Z,6.85
2023-05-22T18:54:11.632Z,6.45
2023-05-22T18:56:39.107Z,8.18
2023-05-22T18:59:05.705Z,6.10
2023-05-22T19:01:32.511Z,7.00
2023-05-22T19:03:59.193Z,9.40
2023-05-22T19:06:26.195Z,9.00
2023-05-22T19:08:52.974Z,9.20
2023-05-22T19:11:19.600Z,12.23
2023-05-22T19:13:46.152Z,12.00
2023-05-22T19:16:14.597Z,10.43
2023-05-22T19:18:41.443Z,14.85
2023-05-22T19:21:08.182Z,9.75
2023-05-22T19:23:34.734Z,10.05
2023-05-22T19:26:01.498Z,12.10
2023-05-22T19:28:28.150Z,14.32
2023-05-22T19:30:57.573Z,7.97
2023-05-22T19:33:26.126Z,12.98
2023-05-22T19:35:53.036Z,6.68
2023-05-22T19:38:19.595Z,10.93
2023-05-22T19:40:46.387Z,9.23
2023-05-22T19:43:13.096Z,10.82
2023-05-22T19:45:39.751Z,14.73
2023-05-22T19:48:06.478Z,7.38
2023-05-22T19:50:33.311Z,10.40
2023-05-22T19:52:59.866Z,9.35
2023-05-22T19:55:26.498Z,12.80
2023-05-22T19:57:55.692Z,8.95
2023-05-22T20:00:22.713Z,7.28
2023-05-22T20:02:49.352Z,16.77
2023-05-22T20:05:16.156Z,13.55
2023-05-22T20:07:43.372Z,7.55
2023-05-22T20:10:10.378Z,8.85
2023-05-22T20:12:37.530Z,13.05
2023-05-22T20:15:04.487Z,9.18
2023-05-22T20:17:31.056Z,7.88
2023-05-22T20:19:58.656Z,7.40
2023-05-22T20:22:26.440Z,7.15
2023-05-22T20:24:53.256Z,11.98
2023-05-22T20:27:19.898Z,9.38
2023-05-22T20:29:46.593Z,11.77
2023-05-22T20:32:13.315Z,11.32
2023-05-22T20:34:40.062Z,11.18
2023-05-22T20:37:08.947Z,11.55
2023-05-22T20:39:35.468Z,15.63
2023-05-22T20:42:04.932Z,10.18
2023-05-22T20:44:31.691Z,9.43
2023-05-22T20:46:58.358Z,14.20
2023-05-22T20:49:25.025Z,12.63
2023-05-22T20:51:51.646Z,13.45
2023-05-22T20:54:18.203Z,9.25
2023-05-22T20:56:44.746Z,15.20
2023-05-22T20:59:11.437Z,14.23
2023-05-22T21:01:38.035Z,13.57
2023-05-22T21:04:04.746Z,12.27
2023-05-22T21:06:31.606Z,8.15
2023-05-22T21:09:01.599Z,12.80
2023-05-22T21:11:28.495Z,11.35
2023-05-22T21:13:55.033Z,10.85
2023-05-22T21:16:21.620Z,12.95
2023-05-22T21:18:49.310Z,12.88
2023-05-22T21:21:17.897Z,9.93
2023-05-22T21:23:44.496Z,10.45
2023-05-22T21:26:11.164Z,8.88
2023-05-22T21:28:37.945Z,10.70
2023-05-22T21:31:04.729Z,11.40
2023-05-22T21:33:31.404Z,13.60
2023-05-22T21:35:58.076Z,10.52
2023-05-22T21:38:24.531Z,11.02
2023-05-22T21:40:51.358Z,8.10
2023-05-22T21:43:18.024Z,11.88
2023-05-22T21:45:44.475Z,11.00
2023-05-22T21:48:11.610Z,9.55
2023-05-22T21:50:38.616Z,12.02
2023-05-22T21:53:05.324Z,11.88
2023-05-22T21:55:31.930Z,10.75
2023-05-22T21:57:58.540Z,11.13
2023-05-22T22:00:25.033Z,10.90
2023-05-22T22:02:51.759Z,11.57
2023-05-22T22:05:18.842Z,11.80
2023-05-22T22:07:45.560Z,9.68
2023-05-22T22:10:12.225Z,10.68
2023-05-22T22:12:38.831Z,14.63
2023-05-22T22:15:05.539Z,12.43
2023-05-22T22:17:32.153Z,11.73
2023-05-22T22:19:58.757Z,11.40
2023-05-22T22:22:25.357Z,20.42
2023-05-22T22:24:51.934Z,11.63
2023-05-22T22:27:19.659Z,7.80
2023-05-22T22:29:46.520Z,8.38
2023-05-22T22:32:13.284Z,16.98
2023-05-22T22:34:39.897Z,18.08
2023-05-22T22:37:06.945Z,13.60
2023-05-22T22:39:33.524Z,6.85
2023-05-22T22:42:06.047Z,9.50
2023-05-22T22:44:32.723Z,14.50
2023-05-22T22:47:01.851Z,15.88
2023-05-22T22:49:28.443Z,13.68
2023-05-22T22:51:54.967Z,13.77
2023-05-22T22:54:21.568Z,15.93
2023-05-22T22:56:49.709Z,11.88
2023-05-22T22:59:16.601Z,11.60
2023-05-22T23:01:43.157Z,11.10
2023-05-22T23:04:09.870Z,9.48
2023-05-22T23:06:36.527Z,11.13
2023-05-22T23:09:03.935Z,10.90
2023-05-22T23:11:39.938Z,12.57
2023-05-22T23:14:08.311Z,12.07
2023-05-22T23:16:40.761Z,13.77
2023-05-22T23:19:08.318Z,12.80
2023-05-22T23:21:35.073Z,16.95
2023-05-22T23:24:02.542Z,17.65
2023-05-22T23:26:29.220Z,17.75
2023-05-22T23:28:55.871Z,12.35
2023-05-22T23:31:32.817Z,15.20
2023-05-22T23:34:02.095Z,15.15
2023-05-22T23:36:28.645Z,16.33
2023-05-22T23:38:55.271Z,14.93
2023-05-22T23:41:21.800Z,13.63
2023-05-22T23:43:48.408Z,16.17
2023-05-22T23:46:15.007Z,14.27
2023-05-22T23:48:42.350Z,16.80
2023-05-22T23:51:10.122Z,16.65
2023-05-22T23:53:36.960Z,22.83
2023-05-22T23:56:03.921Z,17.73
2023-05-22T23:58:31.927Z,19.58
